sensor_id;sensor_type;location;lat;lon;timestamp;temperature;humidity
31747;DHT22;18319;48.974;8.462;2023-02-15T14:47:48;4.10;99.90
31747;DHT22;18319;48.974;8.462;2023-02-15T14:50:39;4.20;99.90
31747;DHT22;18319;48.974;8.462;2023-02-15T14:53:20;4.20;99.90
31747;DHT22;18319;48.974;8.462;2023-02-15T14:56:14;4.20;99.90
31747;DHT22;18319;48.974;8.462;2023-02-15T14:58:58;4.20;99.90
31747;DHT22;18319;48.974;8.462;2023-02-15T15:01:26;4.20;99.90
31747;DHT22;18319;48.974;8.462;2023-02-15T15:03:58;4.20;99.90
31747;DHT22;18319;48.974;8.462;2023-02-15T15:06:27;4.20;99.90
31747;DHT22;18319;48.974;8.462;2023-02-15T15:08:59;4.20;99.90
31747;DHT22;18319;48.974;8.462;2023-02-15T15:11:45;4.20;99.90
31747;DHT22;18319;48.974;8.462;2023-02-15T15:14:36;4.20;99.90
31747;DHT22;18319;48.974;8.462;2023-02-15T15:17:05;4.10;99.90
31747;DHT22;18319;48.974;8.462;2023-02-15T15:20:01;4.10;99.90
31747;DHT22;18319;48.974;8.462;2023-02-15T15:22:29;4.10;99.90
31747;DHT22;18319;48.974;8.462;2023-02-15T15:24:56;4.00;99.90
31747;DHT22;18319;48.974;8.462;2023-02-15T15:27:37;4.00;99.90
31747;DHT22;18319;48.974;8.462;2023-02-15T15:42:49;4.00;99.90
31747;DHT22;18319;48.974;8.462;2023-02-15T15:45:34;4.10;99.90
31747;DHT22;18319;48.974;8.462;2023-02-15T15:50:58;4.10;99.90
31747;DHT22;18319;48.974;8.462;2023-02-15T15:53:28;4.10;99.90
31747;DHT22;18319;48.974;8.462;2023-02-15T15:56:00;4.00;99.90
31747;DHT22;18319;48.974;8.462;2023-02-15T15:58:28;4.00;99.90
31747;DHT22;18319;48.974;8.462;2023-02-15T16:00:59;4.00;99.90
31747;DHT22;18319;48.974;8.462;2023-02-15T16:03:30;3.90;99.90
31747;DHT22;18319;48.974;8.462;2023-02-15T16:05:57;3.90;99.90
31747;DHT22;18319;48.974;8.462;2023-02-15T16:08:27;3.80;99.90
31747;DHT22;18319;48.974;8.462;2023-02-15T16:10:56;3.80;99.90
31747;DHT22;18319;48.974;8.462;2023-02-15T16:13:23;3.70;99.90
31747;DHT22;18319;48.974;8.462;2023-02-15T16:15:52;3.70;99.90
31747;DHT22;18319;48.974;8.462;2023-02-15T16:18:22;3.60;99.90
31747;DHT22;18319;48.974;8.462;2023-02-15T16:20:52;3.60;99.90
31747;DHT22;18319;48.974;8.462;2023-02-15T16:23:52;3.50;99.90
31747;DHT22;18319;48.974;8.462;2023-02-15T16:26:43;3.50;99.90
31747;DHT22;18319;48.974;8.462;2023-02-15T16:29:15;3.40;99.90
31747;DHT22;18319;48.974;8.462;2023-02-15T16:31:42;3.40;99.90
31747;DHT22;18319;48.974;8.462;2023-02-15T16:34:14;3.40;99.90
31747;DHT22;18319;48.974;8.462;2023-02-15T16:36:42;3.30;99.90
31747;DHT22;18319;48.974;8.462;2023-02-15T16:39:16;3.30;99.90
31747;DHT22;18319;48.974;8.462;2023-02-15T16:41:46;3.20;99.90
31747;DHT22;18319;48.974;8.462;2023-02-15T16:44:17;3.20;99.90
31747;DHT22;18319;48.974;8.462;2023-02-15T16:46:46;3.10;99.90
31747;DHT22;18319;48.974;8.462;2023-02-15T16:49:17;3.10;99.90
31747;DHT22;18319;48.974;8.462;2023-02-15T16:51:45;3.00;99.90
31747;DHT22;18319;48.974;8.462;2023-02-15T16:54:21;2.90;99.90
31747;DHT22;18319;48.974;8.462;2023-02-15T16:56:50;2.90;99.90
31747;DHT22;18319;48.974;8.462;2023-02-15T16:59:26;2.70;99.90
31747;DHT22;18319;48.974;8.462;2023-02-15T17:01:55;2.70;99.90
31747;DHT22;18319;48.974;8.462;2023-02-15T17:04:28;2.70;99.90
31747;DHT22;18319;48.974;8.462;2023-02-15T17:07:02;2.60;99.90
31747;DHT22;18319;48.974;8.462;2023-02-15T17:09:30;2.60;99.90
31747;DHT22;18319;48.974;8.462;2023-02-15T17:11:58;2.50;99.90
31747;DHT22;18319;48.974;8.462;2023-02-15T17:14:29;2.50;99.90
31747;DHT22;18319;48.974;8.462;2023-02-15T17:17:05;2.50;99.90
31747;DHT22;18319;48.974;8.462;2023-02-15T17:19:43;2.50;99.90
31747;DHT22;18319;48.974;8.462;2023-02-15T17:22:18;2.40;99.90
31747;DHT22;18319;48.974;8.462;2023-02-15T17:24:48;2.40;99.90
31747;DHT22;18319;48.974;8.462;2023-02-15T17:27:20;2.30;99.90
31747;DHT22;18319;48.974;8.462;2023-02-15T17:29:50;2.30;99.90
31747;DHT22;18319;48.974;8.462;2023-02-15T17:32:20;2.20;99.90
31747;DHT22;18319;48.974;8.462;2023-02-15T17:34:51;2.20;99.90
31747;DHT22;18319;48.974;8.462;2023-02-15T17:37:29;2.10;99.90
31747;DHT22;18319;48.974;8.462;2023-02-15T17:39:57;2.10;99.90
31747;DHT22;18319;48.974;8.462;2023-02-15T17:42:26;2.10;99.90
31747;DHT22;18319;48.974;8.462;2023-02-15T17:44:52;2.00;99.90
31747;DHT22;18319;48.974;8.462;2023-02-15T17:47:21;2.00;99.90
31747;DHT22;18319;48.974;8.462;2023-02-15T17:49:50;2.10;99.90
31747;DHT22;18319;48.974;8.462;2023-02-15T17:52:17;1.90;99.90
31747;DHT22;18319;48.974;8.462;2023-02-15T17:54:44;1.90;99.90
31747;DHT22;18319;48.974;8.462;2023-02-15T17:57:30;1.90;99.90
31747;DHT22;18319;48.974;8.462;2023-02-15T17:59:57;1.80;99.90
31747;DHT22;18319;48.974;8.462;2023-02-15T18:02:42;1.80;99.90
31747;DHT22;18319;48.974;8.462;2023-02-15T18:05:27;1.80;99.90
31747;DHT22;18319;48.974;8.462;2023-02-15T18:08:13;1.80;99.90
31747;DHT22;18319;48.974;8.462;2023-02-15T18:10:59;1.70;99.90
31747;DHT22;18319;48.974;8.462;2023-02-15T18:13:45;1.70;99.90
31747;DHT22;18319;48.974;8.462;2023-02-15T18:16:14;1.70;99.90
31747;DHT22;18319;48.974;8.462;2023-02-15T18:18:43;1.70;99.90
31747;DHT22;18319;48.974;8.462;2023-02-15T18:21:11;1.70;99.90
31747;DHT22;18319;48.974;8.462;2023-02-15T18:23:37;1.70;99.90
31747;DHT22;18319;48.974;8.462;2023-02-15T18:26:05;1.70;99.90
31747;DHT22;18319;48.974;8.462;2023-02-15T18:28:32;1.70;99.90
31747;DHT22;18319;48.974;8.462;2023-02-15T18:31:00;1.70;99.90
31747;DHT22;18319;48.974;8.462;2023-02-15T18:33:33;1.70;99.90
31747;DHT22;18319;48.974;8.462;2023-02-15T18:36:02;1.70;99.90
31747;DHT22;18319;48.974;8.462;2023-02-15T18:38:30;1.70;99.90
31747;DHT22;18319;48.974;8.462;2023-02-15T18:40:57;1.70;99.90
31747;DHT22;18319;48.974;8.462;2023-02-15T18:43:24;1.70;99.90
31747;DHT22;18319;48.974;8.462;2023-02-15T18:45:51;1.70;99.90
31747;DHT22;18319;48.974;8.462;2023-02-15T18:48:19;1.70;99.90
31747;DHT22;18319;48.974;8.462;2023-02-15T18:50:46;1.70;99.90
31747;DHT22;18319;48.974;8.462;2023-02-15T18:53:16;1.70;99.90
31747;DHT22;18319;48.974;8.462;2023-02-15T18:55:44;1.70;99.90
31747;DHT22;18319;48.974;8.462;2023-02-15T18:58:15;1.70;99.90
31747;DHT22;18319;48.974;8.462;2023-02-15T19:00:42;1.70;99.90
31747;DHT22;18319;48.974;8.462;2023-02-15T19:03:12;1.70;99.90
31747;DHT22;18319;48.974;8.462;2023-02-15T19:05:41;1.70;99.90
31747;DHT22;18319;48.974;8.462;2023-02-15T19:08:16;1.60;99.90
31747;DHT22;18319;48.974;8.462;2023-02-15T19:10:43;1.60;99.90
31747;DHT22;18319;48.974;8.462;2023-02-15T19:13:11;1.60;99.90
31747;DHT22;18319;48.974;8.462;2023-02-15T19:15:38;1.50;99.90
31747;DHT22;18319;48.974;8.462;2023-02-15T19:18:05;1.50;99.90
31747;DHT22;18319;48.974;8.462;2023-02-15T19:20:35;1.50;99.90
31747;DHT22;18319;48.974;8.462;2023-02-15T19:23:06;1.40;99.90
31747;DHT22;18319;48.974;8.462;2023-02-15T19:25:34;1.40;99.90
31747;DHT22;18319;48.974;8.462;2023-02-15T19:28:08;1.40;99.90
31747;DHT22;18319;48.974;8.462;2023-02-15T19:30:36;1.50;99.90
31747;DHT22;18319;48.974;8.462;2023-02-15T19:33:03;1.50;99.90
31747;DHT22;18319;48.974;8.462;2023-02-15T19:35:33;1.60;99.90
31747;DHT22;18319;48.974;8.462;2023-02-15T19:38:02;1.70;99.90
31747;DHT22;18319;48.974;8.462;2023-02-15T19:40:33;1.70;99.90
31747;DHT22;18319;48.974;8.462;2023-02-15T19:43:01;1.70;99.90
31747;DHT22;18319;48.974;8.462;2023-02-15T19:45:29;1.70;99.90
31747;DHT22;18319;48.974;8.462;2023-02-15T19:47:58;1.70;99.90
31747;DHT22;18319;48.974;8.462;2023-02-15T19:50:29;1.70;99.90
31747;DHT22;18319;48.974;8.462;2023-02-15T19:52:56;1.60;99.90
31747;DHT22;18319;48.974;8.462;2023-02-15T19:55:25;1.60;99.90
31747;DHT22;18319;48.974;8.462;2023-02-15T19:57:54;1.50;99.90
31747;DHT22;18319;48.974;8.462;2023-02-15T20:00:23;1.50;99.90
31747;DHT22;18319;48.974;8.462;2023-02-15T20:02:50;1.40;99.90
31747;DHT22;18319;48.974;8.462;2023-02-15T20:05:17;1.40;99.90
31747;DHT22;18319;48.974;8.462;2023-02-15T20:07:46;1.40;99.90
31747;DHT22;18319;48.974;8.462;2023-02-15T20:10:15;1.40;99.90
31747;DHT22;18319;48.974;8.462;2023-02-15T20:12:42;1.50;99.90
31747;DHT22;18319;48.974;8.462;2023-02-15T20:15:19;1.50;99.90
31747;DHT22;18319;48.974;8.462;2023-02-15T20:17:46;1.60;99.90
31747;DHT22;18319;48.974;8.462;2023-02-15T20:20:14;1.60;99.90
31747;DHT22;18319;48.974;8.462;2023-02-15T20:22:42;1.60;99.90
31747;DHT22;18319;48.974;8.462;2023-02-15T20:25:13;1.70;99.90
31747;DHT22;18319;48.974;8.462;2023-02-15T20:27:41;1.80;99.90
31747;DHT22;18319;48.974;8.462;2023-02-15T20:30:17;1.80;99.90
31747;DHT22;18319;48.974;8.462;2023-02-15T20:32:45;1.90;99.90
31747;DHT22;18319;48.974;8.462;2023-02-15T20:35:13;2.00;99.90
31747;DHT22;18319;48.974;8.462;2023-02-15T20:37:40;2.10;99.90
31747;DHT22;18319;48.974;8.462;2023-02-15T20:40:18;2.20;99.90
31747;DHT22;18319;48.974;8.462;2023-02-15T20:42:46;2.20;99.90
31747;DHT22;18319;48.974;8.462;2023-02-15T20:45:15;2.20;99.90
31747;DHT22;18319;48.974;8.462;2023-02-15T20:47:44;2.20;99.90
31747;DHT22;18319;48.974;8.462;2023-02-15T20:50:14;2.30;99.90
31747;DHT22;18319;48.974;8.462;2023-02-15T20:52:42;2.30;99.90
31747;DHT22;18319;48.974;8.462;2023-02-15T20:55:18;2.30;99.90
31747;DHT22;18319;48.974;8.462;2023-02-15T20:57:45;2.40;99.90
31747;DHT22;18319;48.974;8.462;2023-02-15T21:00:17;2.40;99.90
31747;DHT22;18319;48.974;8.462;2023-02-15T21:02:47;2.40;99.90
31747;DHT22;18319;48.974;8.462;2023-02-15T21:05:17;2.40;99.90
31747;DHT22;18319;48.974;8.462;2023-02-15T21:07:44;2.30;99.90
31747;DHT22;18319;48.974;8.462;2023-02-15T21:10:20;2.30;99.90
31747;DHT22;18319;48.974;8.462;2023-02-15T21:12:48;2.30;99.90
31747;DHT22;18319;48.974;8.462;2023-02-15T21:15:28;2.30;99.90
31747;DHT22;18319;48.974;8.462;2023-02-15T21:18:05;2.30;99.90
31747;DHT22;18319;48.974;8.462;2023-02-15T21:20:34;2.30;99.90
31747;DHT22;18319;48.974;8.462;2023-02-15T21:23:03;2.20;99.90
31747;DHT22;18319;48.974;8.462;2023-02-15T21:25:33;2.20;99.90
31747;DHT22;18319;48.974;8.462;2023-02-15T21:28:00;2.20;99.90
31747;DHT22;18319;48.974;8.462;2023-02-15T21:30:27;2.10;99.90
31747;DHT22;18319;48.974;8.462;2023-02-15T21:32:55;2.10;99.90
31747;DHT22;18319;48.974;8.462;2023-02-15T21:35:22;2.00;99.90
31747;DHT22;18319;48.974;8.462;2023-02-15T21:37:50;2.00;99.90
31747;DHT22;18319;48.974;8.462;2023-02-15T21:40:20;2.00;99.90
31747;DHT22;18319;48.974;8.462;2023-02-15T21:42:47;2.00;99.90
31747;DHT22;18319;48.974;8.462;2023-02-15T21:45:32;1.90;99.90
31747;DHT22;18319;48.974;8.462;2023-02-15T21:48:18;1.80;99.90
31747;DHT22;18319;48.974;8.462;2023-02-15T21:50:47;1.80;99.90
31747;DHT22;18319;48.974;8.462;2023-02-15T21:53:33;1.80;99.90
31747;DHT22;18319;48.974;8.462;2023-02-15T21:56:02;1.70;99.90
31747;DHT22;18319;48.974;8.462;2023-02-15T21:58:31;1.70;99.90
31747;DHT22;18319;48.974;8.462;2023-02-15T22:00:59;1.70;99.90
31747;DHT22;18319;48.974;8.462;2023-02-15T22:03:31;1.60;99.90
31747;DHT22;18319;48.974;8.462;2023-02-15T22:05:59;1.70;99.90
31747;DHT22;18319;48.974;8.462;2023-02-15T22:08:26;1.70;99.90
31747;DHT22;18319;48.974;8.462;2023-02-15T22:10:54;1.60;99.90
31747;DHT22;18319;48.974;8.462;2023-02-15T22:13:25;1.60;99.90
31747;DHT22;18319;48.974;8.462;2023-02-15T22:15:52;1.60;99.90
31747;DHT22;18319;48.974;8.462;2023-02-15T22:18:22;1.60;99.90
31747;DHT22;18319;48.974;8.462;2023-02-15T22:20:50;1.60;99.90
31747;DHT22;18319;48.974;8.462;2023-02-15T22:23:17;1.60;99.90
31747;DHT22;18319;48.974;8.462;2023-02-15T22:25:49;1.50;99.90
31747;DHT22;18319;48.974;8.462;2023-02-15T22:28:22;1.40;99.90
31747;DHT22;18319;48.974;8.462;2023-02-15T22:30:50;1.30;99.90
31747;DHT22;18319;48.974;8.462;2023-02-15T22:33:25;1.30;99.90
31747;DHT22;18319;48.974;8.462;2023-02-15T22:35:54;1.30;99.90
31747;DHT22;18319;48.974;8.462;2023-02-15T22:38:21;1.30;99.90
31747;DHT22;18319;48.974;8.462;2023-02-15T22:40:48;1.30;99.90
31747;DHT22;18319;48.974;8.462;2023-02-15T22:43:22;1.30;99.90
31747;DHT22;18319;48.974;8.462;2023-02-15T22:45:50;1.30;99.90
31747;DHT22;18319;48.974;8.462;2023-02-15T22:48:20;1.30;99.90
31747;DHT22;18319;48.974;8.462;2023-02-15T22:50:48;1.30;99.90
31747;DHT22;18319;48.974;8.462;2023-02-15T22:53:16;1.30;99.90
31747;DHT22;18319;48.974;8.462;2023-02-15T22:55:43;1.30;99.90
31747;DHT22;18319;48.974;8.462;2023-02-15T22:58:15;1.30;99.90
31747;DHT22;18319;48.974;8.462;2023-02-15T23:00:43;1.30;99.90
31747;DHT22;18319;48.974;8.462;2023-02-15T23:03:15;1.30;99.90
31747;DHT22;18319;48.974;8.462;2023-02-15T23:05:42;1.30;99.90
31747;DHT22;18319;48.974;8.462;2023-02-15T23:08:10;1.30;99.90
31747;DHT22;18319;48.974;8.462;2023-02-15T23:10:39;1.30;99.90
31747;DHT22;18319;48.974;8.462;2023-02-15T23:13:15;1.30;99.90
31747;DHT22;18319;48.974;8.462;2023-02-15T23:15:51;1.30;99.90
31747;DHT22;18319;48.974;8.462;2023-02-15T23:18:20;1.30;99.90
31747;DHT22;18319;48.974;8.462;2023-02-15T23:20:49;1.20;99.90
31747;DHT22;18319;48.974;8.462;2023-02-15T23:23:21;1.20;99.90
31747;DHT22;18319;48.974;8.462;2023-02-15T23:25:50;1.20;99.90
31747;DHT22;18319;48.974;8.462;2023-02-15T23:31:41;1.00;99.90
31747;DHT22;18319;48.974;8.462;2023-02-15T23:34:14;0.80;99.90
31747;DHT22;18319;48.974;8.462;2023-02-15T23:36:41;0.70;99.90
31747;DHT22;18319;48.974;8.462;2023-02-15T23:39:26;0.60;99.90
31747;DHT22;18319;48.974;8.462;2023-02-15T23:42:10;0.60;99.90
31747;DHT22;18319;48.974;8.462;2023-02-15T23:44:38;0.60;99.90
31747;DHT22;18319;48.974;8.462;2023-02-15T23:47:08;0.60;99.90
31747;DHT22;18319;48.974;8.462;2023-02-15T23:49:42;0.70;99.90
31747;DHT22;18319;48.974;8.462;2023-02-15T23:52:09;0.70;99.90
31747;DHT22;18319;48.974;8.462;2023-02-15T23:54:37;0.70;99.90
31747;DHT22;18319;48.974;8.462;2023-02-15T23:57:03;0.70;99.90
31747;DHT22;18319;48.974;8.462;2023-02-15T23:59:31;0.60;99.90
